sensor_id;sensor_type;location;lat;lon;timestamp;P1;durP1;ratioP1;P2;durP2;ratioP2
66093;SDS011;52876;49.394;10.892;2023-03-01T00:01:08;117.68;;;37.10;;
66093;SDS011;52876;49.394;10.892;2023-03-01T00:03:35;103.75;;;34.95;;
66093;SDS011;52876;49.394;10.892;2023-03-01T00:06:02;90.03;;;27.07;;
66093;SDS011;52876;49.394;10.892;2023-03-01T00:08:29;89.20;;;29.05;;
66093;SDS011;52876;49.394;10.892;2023-03-01T00:11:01;91.03;;;25.75;;
66093;SDS011;52876;49.394;10.892;2023-03-01T00:13:27;73.05;;;24.90;;
66093;SDS011;52876;49.394;10.892;2023-03-01T00:15:55;85.10;;;22.20;;
66093;SDS011;52876;49.394;10.892;2023-03-01T00:18:21;87.00;;;26.27;;
66093;SDS011;52876;49.394;10.892;2023-03-01T00:20:49;99.78;;;27.63;;
66093;SDS011;52876;49.394;10.892;2023-03-01T00:23:15;84.85;;;27.27;;
66093;SDS011;52876;49.394;10.892;2023-03-01T00:25:43;83.90;;;26.20;;
66093;SDS011;52876;49.394;10.892;2023-03-01T00:28:10;90.78;;;27.77;;
66093;SDS011;52876;49.394;10.892;2023-03-01T00:30:36;74.53;;;24.77;;
66093;SDS011;52876;49.394;10.892;2023-03-01T00:33:02;100.82;;;27.20;;
66093;SDS011;52876;49.394;10.892;2023-03-01T00:35:29;91.85;;;27.83;;
66093;SDS011;52876;49.394;10.892;2023-03-01T00:37:56;126.82;;;33.70;;
66093;SDS011;52876;49.394;10.892;2023-03-01T00:40:22;73.65;;;25.23;;
66093;SDS011;52876;49.394;10.892;2023-03-01T00:42:48;105.72;;;29.92;;
66093;SDS011;52876;49.394;10.892;2023-03-01T00:45:16;100.50;;;29.00;;
66093;SDS011;52876;49.394;10.892;2023-03-01T00:47:43;105.60;;;29.73;;
66093;SDS011;52876;49.394;10.892;2023-03-01T00:50:10;95.35;;;26.92;;
66093;SDS011;52876;49.394;10.892;2023-03-01T00:52:38;84.15;;;26.13;;
66093;SDS011;52876;49.394;10.892;2023-03-01T00:55:04;100.70;;;29.75;;
66093;SDS011;52876;49.394;10.892;2023-03-01T00:57:32;88.70;;;27.02;;
66093;SDS011;52876;49.394;10.892;2023-03-01T00:59:58;100.47;;;26.27;;
66093;SDS011;52876;49.394;10.892;2023-03-01T01:02:26;84.55;;;25.25;;
66093;SDS011;52876;49.394;10.892;2023-03-01T01:04:52;100.43;;;24.95;;
66093;SDS011;52876;49.394;10.892;2023-03-01T01:07:18;79.40;;;24.80;;
66093;SDS011;52876;49.394;10.892;2023-03-01T01:09:44;84.72;;;25.92;;
66093;SDS011;52876;49.394;10.892;2023-03-01T01:12:10;116.85;;;29.88;;
66093;SDS011;52876;49.394;10.892;2023-03-01T01:14:36;92.25;;;28.73;;
66093;SDS011;52876;49.394;10.892;2023-03-01T01:17:04;116.47;;;30.88;;
66093;SDS011;52876;49.394;10.892;2023-03-01T01:19:31;95.63;;;26.65;;
66093;SDS011;52876;49.394;10.892;2023-03-01T01:21:59;112.45;;;28.67;;
66093;SDS011;52876;49.394;10.892;2023-03-01T01:24:25;101.03;;;29.20;;
66093;SDS011;52876;49.394;10.892;2023-03-01T01:26:53;101.72;;;27.80;;
66093;SDS011;52876;49.394;10.892;2023-03-01T01:29:19;90.88;;;25.80;;
66093;SDS011;52876;49.394;10.892;2023-03-01T01:31:47;99.68;;;28.88;;
66093;SDS011;52876;49.394;10.892;2023-03-01T01:34:13;117.55;;;31.95;;
66093;SDS011;52876;49.394;10.892;2023-03-01T01:36:41;92.93;;;27.20;;
66093;SDS011;52876;49.394;10.892;2023-03-01T01:39:07;124.45;;;33.00;;
66093;SDS011;52876;49.394;10.892;2023-03-01T01:41:33;77.22;;;24.63;;
66093;SDS011;52876;49.394;10.892;2023-03-01T01:44:13;103.47;;;28.23;;
66093;SDS011;52876;49.394;10.892;2023-03-01T01:46:40;106.10;;;29.70;;
66093;SDS011;52876;49.394;10.892;2023-03-01T01:49:09;112.38;;;29.58;;
66093;SDS011;52876;49.394;10.892;2023-03-01T01:51:38;112.53;;;32.30;;
66093;SDS011;52876;49.394;10.892;2023-03-01T01:54:08;126.30;;;34.05;;
66093;SDS011;52876;49.394;10.892;2023-03-01T01:56:35;105.03;;;29.52;;
66093;SDS011;52876;49.394;10.892;2023-03-01T01:59:03;101.32;;;27.13;;
66093;SDS011;52876;49.394;10.892;2023-03-01T02:01:31;89.28;;;26.92;;
66093;SDS011;52876;49.394;10.892;2023-03-01T02:03:57;128.65;;;31.83;;
66093;SDS011;52876;49.394;10.892;2023-03-01T02:06:25;131.85;;;32.30;;
66093;SDS011;52876;49.394;10.892;2023-03-01T02:08:52;105.90;;;27.60;;
66093;SDS011;52876;49.394;10.892;2023-03-01T02:11:21;137.63;;;34.50;;
66093;SDS011;52876;49.394;10.892;2023-03-01T02:13:47;93.75;;;26.80;;
66093;SDS011;52876;49.394;10.892;2023-03-01T02:16:15;85.57;;;25.98;;
66093;SDS011;52876;49.394;10.892;2023-03-01T02:18:41;94.78;;;28.40;;
66093;SDS011;52876;49.394;10.892;2023-03-01T02:21:12;67.55;;;21.45;;
66093;SDS011;52876;49.394;10.892;2023-03-01T02:23:41;80.22;;;25.58;;
66093;SDS011;52876;49.394;10.892;2023-03-01T02:26:09;90.40;;;25.95;;
66093;SDS011;52876;49.394;10.892;2023-03-01T02:28:38;105.10;;;29.70;;
66093;SDS011;52876;49.394;10.892;2023-03-01T02:31:06;100.22;;;30.05;;
66093;SDS011;52876;49.394;10.892;2023-03-01T02:33:34;84.25;;;26.05;;
66093;SDS011;52876;49.394;10.892;2023-03-01T02:36:03;98.63;;;25.30;;
66093;SDS011;52876;49.394;10.892;2023-03-01T02:38:30;90.40;;;26.30;;
66093;SDS011;52876;49.394;10.892;2023-03-01T02:40:58;89.07;;;27.60;;
66093;SDS011;52876;49.394;10.892;2023-03-01T02:43:27;126.25;;;32.78;;
66093;SDS011;52876;49.394;10.892;2023-03-01T02:45:57;99.10;;;26.35;;
66093;SDS011;52876;49.394;10.892;2023-03-01T02:48:23;121.10;;;31.98;;
66093;SDS011;52876;49.394;10.892;2023-03-01T02:50:57;89.43;;;26.88;;
66093;SDS011;52876;49.394;10.892;2023-03-01T02:53:27;95.43;;;23.90;;
66093;SDS011;52876;49.394;10.892;2023-03-01T02:55:59;94.70;;;28.35;;
66093;SDS011;52876;49.394;10.892;2023-03-01T02:58:25;112.70;;;29.90;;
66093;SDS011;52876;49.394;10.892;2023-03-01T03:00:51;99.88;;;29.65;;
66093;SDS011;52876;49.394;10.892;2023-03-01T03:03:19;97.50;;;28.17;;
66093;SDS011;52876;49.394;10.892;2023-03-01T03:05:47;102.15;;;28.58;;
66093;SDS011;52876;49.394;10.892;2023-03-01T03:08:13;98.78;;;29.15;;
66093;SDS011;52876;49.394;10.892;2023-03-01T03:10:41;96.72;;;28.38;;
66093;SDS011;52876;49.394;10.892;2023-03-01T03:13:08;122.70;;;29.33;;
66093;SDS011;52876;49.394;10.892;2023-03-01T03:15:34;126.47;;;32.10;;
66093;SDS011;52876;49.394;10.892;2023-03-01T03:18:00;112.80;;;30.42;;
66093;SDS011;52876;49.394;10.892;2023-03-01T03:20:29;128.65;;;34.17;;
66093;SDS011;52876;49.394;10.892;2023-03-01T03:22:56;126.38;;;32.45;;
66093;SDS011;52876;49.394;10.892;2023-03-01T03:25:25;109.30;;;30.58;;
66093;SDS011;52876;49.394;10.892;2023-03-01T03:27:52;123.63;;;34.35;;
66093;SDS011;52876;49.394;10.892;2023-03-01T03:30:18;116.22;;;31.23;;
66093;SDS011;52876;49.394;10.892;2023-03-01T03:32:46;95.65;;;27.88;;
66093;SDS011;52876;49.394;10.892;2023-03-01T03:35:13;122.45;;;30.55;;
66093;SDS011;52876;49.394;10.892;2023-03-01T03:37:42;131.20;;;33.92;;
66093;SDS011;52876;49.394;10.892;2023-03-01T03:40:08;129.43;;;33.35;;
66093;SDS011;52876;49.394;10.892;2023-03-01T03:42:36;137.95;;;32.45;;
66093;SDS011;52876;49.394;10.892;2023-03-01T03:45:02;104.55;;;27.67;;
66093;SDS011;52876;49.394;10.892;2023-03-01T03:47:30;105.32;;;27.23;;
66093;SDS011;52876;49.394;10.892;2023-03-01T03:49:56;115.50;;;31.63;;
66093;SDS011;52876;49.394;10.892;2023-03-01T03:52:22;111.50;;;29.52;;
66093;SDS011;52876;49.394;10.892;2023-03-01T03:54:50;110.70;;;30.95;;
66093;SDS011;52876;49.394;10.892;2023-03-01T03:57:17;90.88;;;28.85;;
66093;SDS011;52876;49.394;10.892;2023-03-01T03:59:43;128.60;;;34.30;;
66093;SDS011;52876;49.394;10.892;2023-03-01T04:02:09;130.65;;;37.63;;
66093;SDS011;52876;49.394;10.892;2023-03-01T04:04:35;114.40;;;32.50;;
66093;SDS011;52876;49.394;10.892;2023-03-01T04:07:03;82.90;;;26.98;;
66093;SDS011;52876;49.394;10.892;2023-03-01T04:09:29;97.95;;;29.38;;
66093;SDS011;52876;49.394;10.892;2023-03-01T04:11:57;88.57;;;27.88;;
66093;SDS011;52876;49.394;10.892;2023-03-01T04:14:23;95.13;;;29.42;;
66093;SDS011;52876;49.394;10.892;2023-03-01T04:16:49;131.90;;;33.28;;
66093;SDS011;52876;49.394;10.892;2023-03-01T04:19:16;122.63;;;31.98;;
66093;SDS011;52876;49.394;10.892;2023-03-01T04:21:43;153.90;;;36.70;;
66093;SDS011;52876;49.394;10.892;2023-03-01T04:24:10;115.47;;;30.55;;
66093;SDS011;52876;49.394;10.892;2023-03-01T04:26:37;103.70;;;31.67;;
66093;SDS011;52876;49.394;10.892;2023-03-01T04:29:05;91.10;;;28.95;;
66093;SDS011;52876;49.394;10.892;2023-03-01T04:31:33;92.28;;;30.70;;
66093;SDS011;52876;49.394;10.892;2023-03-01T04:33:59;128.38;;;38.08;;
66093;SDS011;52876;49.394;10.892;2023-03-01T04:36:26;110.00;;;35.17;;
66093;SDS011;52876;49.394;10.892;2023-03-01T04:38:52;117.30;;;32.03;;
66093;SDS011;52876;49.394;10.892;2023-03-01T04:41:19;88.78;;;26.27;;
66093;SDS011;52876;49.394;10.892;2023-03-01T04:43:45;109.40;;;26.52;;
66093;SDS011;52876;49.394;10.892;2023-03-01T04:46:15;133.30;;;37.80;;
66093;SDS011;52876;49.394;10.892;2023-03-01T04:48:42;126.15;;;37.10;;
66093;SDS011;52876;49.394;10.892;2023-03-01T04:51:10;103.15;;;32.25;;
66093;SDS011;52876;49.394;10.892;2023-03-01T04:53:36;94.60;;;28.23;;
66093;SDS011;52876;49.394;10.892;2023-03-01T04:56:04;124.93;;;33.28;;
66093;SDS011;52876;49.394;10.892;2023-03-01T04:58:30;108.20;;;28.65;;
66093;SDS011;52876;49.394;10.892;2023-03-01T05:00:58;113.35;;;30.67;;
66093;SDS011;52876;49.394;10.892;2023-03-01T05:03:26;108.00;;;29.67;;
66093;SDS011;52876;49.394;10.892;2023-03-01T05:05:53;129.00;;;33.88;;
66093;SDS011;52876;49.394;10.892;2023-03-01T05:08:20;121.07;;;33.78;;
66093;SDS011;52876;49.394;10.892;2023-03-01T05:10:48;118.05;;;31.30;;
66093;SDS011;52876;49.394;10.892;2023-03-01T05:13:15;84.45;;;29.65;;
66093;SDS011;52876;49.394;10.892;2023-03-01T05:15:43;98.35;;;29.45;;
66093;SDS011;52876;49.394;10.892;2023-03-01T05:18:09;108.05;;;30.92;;
66093;SDS011;52876;49.394;10.892;2023-03-01T05:20:36;76.25;;;24.58;;
66093;SDS011;52876;49.394;10.892;2023-03-01T05:23:02;65.13;;;26.63;;
66093;SDS011;52876;49.394;10.892;2023-03-01T05:25:30;61.00;;;23.40;;
66093;SDS011;52876;49.394;10.892;2023-03-01T05:27:57;100.40;;;30.45;;
66093;SDS011;52876;49.394;10.892;2023-03-01T05:30:23;73.88;;;23.73;;
66093;SDS011;52876;49.394;10.892;2023-03-01T05:32:50;98.93;;;29.08;;
66093;SDS011;52876;49.394;10.892;2023-03-01T05:35:16;86.25;;;30.00;;
66093;SDS011;52876;49.394;10.892;2023-03-01T05:37:46;77.47;;;29.10;;
66093;SDS011;52876;49.394;10.892;2023-03-01T05:40:14;66.38;;;24.75;;
66093;SDS011;52876;49.394;10.892;2023-03-01T05:42:42;87.05;;;27.65;;
66093;SDS011;52876;49.394;10.892;2023-03-01T05:45:09;89.25;;;29.55;;
66093;SDS011;52876;49.394;10.892;2023-03-01T05:47:36;75.25;;;26.75;;
66093;SDS011;52876;49.394;10.892;2023-03-01T05:50:03;149.45;;;44.47;;
66093;SDS011;52876;49.394;10.892;2023-03-01T05:52:30;66.15;;;25.83;;
66093;SDS011;52876;49.394;10.892;2023-03-01T05:54:57;116.00;;;34.10;;
66093;SDS011;52876;49.394;10.892;2023-03-01T05:57:24;104.00;;;30.08;;
66093;SDS011;52876;49.394;10.892;2023-03-01T05:59:50;129.48;;;36.58;;
66093;SDS011;52876;49.394;10.892;2023-03-01T06:02:16;119.32;;;34.78;;
66093;SDS011;52876;49.394;10.892;2023-03-01T06:04:42;101.15;;;30.40;;
66093;SDS011;52876;49.394;10.892;2023-03-01T06:07:09;110.10;;;29.52;;
66093;SDS011;52876;49.394;10.892;2023-03-01T06:09:35;90.22;;;28.42;;
66093;SDS011;52876;49.394;10.892;2023-03-01T06:12:05;102.32;;;28.52;;
66093;SDS011;52876;49.394;10.892;2023-03-01T06:14:31;106.82;;;31.17;;
66093;SDS011;52876;49.394;10.892;2023-03-01T06:16:57;104.30;;;32.47;;
66093;SDS011;52876;49.394;10.892;2023-03-01T06:19:23;92.90;;;27.20;;
66093;SDS011;52876;49.394;10.892;2023-03-01T06:21:50;120.25;;;33.58;;
66093;SDS011;52876;49.394;10.892;2023-03-01T06:24:17;95.93;;;26.33;;
66093;SDS011;52876;49.394;10.892;2023-03-01T06:26:44;92.97;;;30.10;;
66093;SDS011;52876;49.394;10.892;2023-03-01T06:29:11;128.25;;;36.97;;
66093;SDS011;52876;49.394;10.892;2023-03-01T06:31:37;77.35;;;27.70;;
66093;SDS011;52876;49.394;10.892;2023-03-01T06:34:04;101.28;;;31.70;;
66093;SDS011;52876;49.394;10.892;2023-03-01T06:36:30;102.88;;;30.52;;
66093;SDS011;52876;49.394;10.892;2023-03-01T06:38:56;73.32;;;27.17;;
66093;SDS011;52876;49.394;10.892;2023-03-01T06:41:23;94.18;;;30.67;;
66093;SDS011;52876;49.394;10.892;2023-03-01T06:43:49;68.63;;;26.92;;
66093;SDS011;52876;49.394;10.892;2023-03-01T06:46:18;112.07;;;35.08;;
66093;SDS011;52876;49.394;10.892;2023-03-01T06:48:44;65.57;;;24.67;;
66093;SDS011;52876;49.394;10.892;2023-03-01T06:51:13;101.78;;;32.35;;
66093;SDS011;52876;49.394;10.892;2023-03-01T06:53:39;69.05;;;25.80;;
66093;SDS011;52876;49.394;10.892;2023-03-01T06:56:07;71.32;;;26.40;;
66093;SDS011;52876;49.394;10.892;2023-03-01T06:58:33;67.97;;;25.23;;
66093;SDS011;52876;49.394;10.892;2023-03-01T07:01:04;67.50;;;24.67;;
66093;SDS011;52876;49.394;10.892;2023-03-01T07:03:32;68.50;;;26.10;;
66093;SDS011;52876;49.394;10.892;2023-03-01T07:05:58;73.80;;;26.23;;
66093;SDS011;52876;49.394;10.892;2023-03-01T07:08:24;85.78;;;27.90;;
66093;SDS011;52876;49.394;10.892;2023-03-01T07:10:54;75.90;;;28.00;;
66093;SDS011;52876;49.394;10.892;2023-03-01T07:13:20;118.30;;;34.80;;
66093;SDS011;52876;49.394;10.892;2023-03-01T07:15:48;86.97;;;29.23;;
66093;SDS011;52876;49.394;10.892;2023-03-01T07:18:14;96.53;;;30.67;;
66093;SDS011;52876;49.394;10.892;2023-03-01T07:20:42;86.70;;;27.97;;
66093;SDS011;52876;49.394;10.892;2023-03-01T07:23:09;78.87;;;26.97;;
66093;SDS011;52876;49.394;10.892;2023-03-01T07:25:36;85.40;;;27.37;;
66093;SDS011;52876;49.394;10.892;2023-03-01T07:28:02;138.47;;;36.07;;
66093;SDS011;52876;49.394;10.892;2023-03-01T07:30:28;118.50;;;32.33;;
66093;SDS011;52876;49.394;10.892;2023-03-01T07:32:55;157.97;;;41.20;;
66093;SDS011;52876;49.394;10.892;2023-03-01T07:35:21;191.23;;;47.37;;
66093;SDS011;52876;49.394;10.892;2023-03-01T07:37:50;157.43;;;43.33;;
66093;SDS011;52876;49.394;10.892;2023-03-01T07:40:16;201.30;;;56.30;;
66093;SDS011;52876;49.394;10.892;2023-03-01T07:42:44;156.60;;;43.97;;
66093;SDS011;52876;49.394;10.892;2023-03-01T07:45:10;123.90;;;40.97;;
66093;SDS011;52876;49.394;10.892;2023-03-01T07:47:38;119.80;;;35.00;;
66093;SDS011;52876;49.394;10.892;2023-03-01T07:50:04;75.83;;;27.37;;
66093;SDS011;52876;49.394;10.892;2023-03-01T07:52:32;90.50;;;30.30;;
66093;SDS011;52876;49.394;10.892;2023-03-01T07:54:59;101.70;;;32.90;;
66093;SDS011;52876;49.394;10.892;2023-03-01T07:57:27;176.43;;;47.60;;
66093;SDS011;52876;49.394;10.892;2023-03-01T07:59:53;165.17;;;43.50;;
66093;SDS011;52876;49.394;10.892;2023-03-01T08:02:20;104.20;;;34.47;;
66093;SDS011;52876;49.394;10.892;2023-03-01T08:04:46;62.57;;;25.90;;
66093;SDS011;52876;49.394;10.892;2023-03-01T08:07:14;104.90;;;34.07;;
66093;SDS011;52876;49.394;10.892;2023-03-01T08:09:40;50.50;;;22.87;;
66093;SDS011;52876;49.394;10.892;2023-03-01T08:12:09;46.13;;;23.47;;
66093;SDS011;52876;49.394;10.892;2023-03-01T08:14:35;70.70;;;29.30;;
66093;SDS011;52876;49.394;10.892;2023-03-01T08:17:01;51.53;;;23.70;;
66093;SDS011;52876;49.394;10.892;2023-03-01T08:19:27;185.47;;;50.27;;
66093;SDS011;52876;49.394;10.892;2023-03-01T08:21:53;75.03;;;28.50;;
66093;SDS011;52876;49.394;10.892;2023-03-01T08:24:19;70.97;;;26.33;;
66093;SDS011;52876;49.394;10.892;2023-03-01T08:26:47;105.30;;;33.60;;
66093;SDS011;52876;49.394;10.892;2023-03-01T08:29:14;80.47;;;28.03;;
66093;SDS011;52876;49.394;10.892;2023-03-01T08:31:42;79.33;;;28.60;;
66093;SDS011;52876;49.394;10.892;2023-03-01T08:34:09;68.17;;;26.50;;
66093;SDS011;52876;49.394;10.892;2023-03-01T08:36:37;87.07;;;31.43;;
66093;SDS011;52876;49.394;10.892;2023-03-01T08:39:04;57.80;;;24.93;;
66093;SDS011;52876;49.394;10.892;2023-03-01T08:41:32;112.70;;;36.20;;
66093;SDS011;52876;49.394;10.892;2023-03-01T08:43:58;117.63;;;35.20;;
66093;SDS011;52876;49.394;10.892;2023-03-01T08:46:25;66.70;;;25.70;;
66093;SDS011;52876;49.394;10.892;2023-03-01T08:48:51;66.40;;;26.07;;
66093;SDS011;52876;49.394;10.892;2023-03-01T08:51:19;76.77;;;28.37;;
66093;SDS011;52876;49.394;10.892;2023-03-01T08:53:46;66.60;;;26.47;;
66093;SDS011;52876;49.394;10.892;2023-03-01T08:56:14;84.43;;;29.30;;
66093;SDS011;52876;49.394;10.892;2023-03-01T08:58:43;121.03;;;40.43;;
66093;SDS011;52876;49.394;10.892;2023-03-01T09:01:09;40.00;;;22.20;;
66093;SDS011;52876;49.394;10.892;2023-03-01T09:03:37;38.40;;;23.33;;
66093;SDS011;52876;49.394;10.892;2023-03-01T09:06:06;26.27;;;19.43;;
66093;SDS011;52876;49.394;10.892;2023-03-01T09:08:33;34.87;;;20.63;;
66093;SDS011;52876;49.394;10.892;2023-03-01T09:11:00;22.80;;;18.67;;
66093;SDS011;52876;49.394;10.892;2023-03-01T09:13:27;23.07;;;18.17;;
66093;SDS011;52876;49.394;10.892;2023-03-01T09:15:53;22.47;;;17.13;;
66093;SDS011;52876;49.394;10.892;2023-03-01T09:18:19;25.23;;;17.90;;
66093;SDS011;52876;49.394;10.892;2023-03-01T09:20:47;25.07;;;18.40;;
66093;SDS011;52876;49.394;10.892;2023-03-01T09:23:13;22.83;;;17.17;;
66093;SDS011;52876;49.394;10.892;2023-03-01T09:25:41;24.17;;;18.17;;
66093;SDS011;52876;49.394;10.892;2023-03-01T09:28:07;24.53;;;17.40;;
66093;SDS011;52876;49.394;10.892;2023-03-01T09:30:33;22.40;;;16.87;;
66093;SDS011;52876;49.394;10.892;2023-03-01T09:32:59;24.27;;;17.27;;
66093;SDS011;52876;49.394;10.892;2023-03-01T09:35:25;23.03;;;17.20;;
66093;SDS011;52876;49.394;10.892;2023-03-01T09:37:53;22.10;;;15.93;;
66093;SDS011;52876;49.394;10.892;2023-03-01T09:40:21;22.10;;;17.17;;
66093;SDS011;52876;49.394;10.892;2023-03-01T09:42:51;23.80;;;17.17;;
66093;SDS011;52876;49.394;10.892;2023-03-01T09:45:21;28.77;;;18.43;;
66093;SDS011;52876;49.394;10.892;2023-03-01T09:47:49;24.60;;;17.70;;
66093;SDS011;52876;49.394;10.892;2023-03-01T09:50:17;24.17;;;16.57;;
66093;SDS011;52876;49.394;10.892;2023-03-01T09:52:46;21.83;;;16.70;;
66093;SDS011;52876;49.394;10.892;2023-03-01T09:55:15;23.53;;;17.27;;
66093;SDS011;52876;49.394;10.892;2023-03-01T09:57:45;24.90;;;18.10;;
66093;SDS011;52876;49.394;10.892;2023-03-01T10:00:15;21.40;;;17.03;;
66093;SDS011;52876;49.394;10.892;2023-03-01T10:02:44;22.63;;;15.70;;
66093;SDS011;52876;49.394;10.892;2023-03-01T10:07:58;26.60;;;17.03;;
66093;SDS011;52876;49.394;10.892;2023-03-01T10:10:31;23.17;;;17.27;;
66093;SDS011;52876;49.394;10.892;2023-03-01T10:12:58;23.90;;;16.80;;
66093;SDS011;52876;49.394;10.892;2023-03-01T10:15:29;22.10;;;16.50;;
66093;SDS011;52876;49.394;10.892;2023-03-01T10:17:57;22.60;;;16.90;;
66093;SDS011;52876;49.394;10.892;2023-03-01T10:20:26;22.37;;;15.60;;
66093;SDS011;52876;49.394;10.892;2023-03-01T10:22:53;26.67;;;17.63;;
66093;SDS011;52876;49.394;10.892;2023-03-01T10:25:23;21.67;;;16.67;;
66093;SDS011;52876;49.394;10.892;2023-03-01T10:27:52;21.50;;;16.47;;
66093;SDS011;52876;49.394;10.892;2023-03-01T10:30:21;22.03;;;15.97;;
66093;SDS011;52876;49.394;10.892;2023-03-01T10:32:48;23.87;;;16.33;;
66093;SDS011;52876;49.394;10.892;2023-03-01T10:35:18;20.77;;;17.00;;
66093;SDS011;52876;49.394;10.892;2023-03-01T10:37:56;20.87;;;14.80;;
66093;SDS011;52876;49.394;10.892;2023-03-01T10:40:22;23.23;;;16.00;;
66093;SDS011;52876;49.394;10.892;2023-03-01T10:42:48;22.20;;;16.73;;
66093;SDS011;52876;49.394;10.892;2023-03-01T10:45:23;21.27;;;16.80;;
66093;SDS011;52876;49.394;10.892;2023-03-01T10:48:01;20.50;;;16.70;;
66093;SDS011;52876;49.394;10.892;2023-03-01T10:50:30;22.67;;;16.23;;
66093;SDS011;52876;49.394;10.892;2023-03-01T10:52:57;21.67;;;15.97;;
66093;SDS011;52876;49.394;10.892;2023-03-01T10:55:26;35.47;;;16.37;;
66093;SDS011;52876;49.394;10.892;2023-03-01T10:58:05;20.37;;;14.97;;
66093;SDS011;52876;49.394;10.892;2023-03-01T11:00:35;26.17;;;17.73;;
66093;SDS011;52876;49.394;10.892;2023-03-01T11:03:12;26.43;;;19.40;;
66093;SDS011;52876;49.394;10.892;2023-03-01T11:05:49;44.13;;;22.00;;
66093;SDS011;52876;49.394;10.892;2023-03-01T11:08:26;34.30;;;19.13;;
66093;SDS011;52876;49.394;10.892;2023-03-01T11:11:03;45.17;;;22.73;;
66093;SDS011;52876;49.394;10.892;2023-03-01T11:13:29;32.50;;;20.50;;
66093;SDS011;52876;49.394;10.892;2023-03-01T11:15:59;46.43;;;21.57;;
66093;SDS011;52876;49.394;10.892;2023-03-01T11:18:26;50.77;;;21.63;;
66093;SDS011;52876;49.394;10.892;2023-03-01T11:20:53;47.33;;;20.97;;
66093;SDS011;52876;49.394;10.892;2023-03-01T11:23:20;89.10;;;29.00;;
66093;SDS011;52876;49.394;10.892;2023-03-01T11:25:49;81.57;;;27.40;;
66093;SDS011;52876;49.394;10.892;2023-03-01T11:28:17;89.77;;;31.60;;
66093;SDS011;52876;49.394;10.892;2023-03-01T11:30:47;145.70;;;48.67;;
66093;SDS011;52876;49.394;10.892;2023-03-01T11:33:17;37.57;;;20.80;;
66093;SDS011;52876;49.394;10.892;2023-03-01T11:35:47;19.33;;;15.93;;
66093;SDS011;52876;49.394;10.892;2023-03-01T11:38:17;34.83;;;20.97;;
66093;SDS011;52876;49.394;10.892;2023-03-01T11:40:44;24.27;;;19.13;;
66093;SDS011;52876;49.394;10.892;2023-03-01T11:43:14;22.30;;;17.57;;
66093;SDS011;52876;49.394;10.892;2023-03-01T11:45:46;24.70;;;20.23;;
66093;SDS011;52876;49.394;10.892;2023-03-01T11:48:21;25.67;;;18.83;;
66093;SDS011;52876;49.394;10.892;2023-03-01T11:50:48;23.70;;;18.67;;
66093;SDS011;52876;49.394;10.892;2023-03-01T11:53:22;28.53;;;22.43;;
66093;SDS011;52876;49.394;10.892;2023-03-01T11:55:55;26.10;;;17.97;;
66093;SDS011;52876;49.394;10.892;2023-03-01T11:58:31;29.93;;;17.87;;
66093;SDS011;52876;49.394;10.892;2023-03-01T12:01:03;23.53;;;18.20;;
66093;SDS011;52876;49.394;10.892;2023-03-01T12:03:36;28.07;;;17.53;;
66093;SDS011;52876;49.394;10.892;2023-03-01T12:06:17;21.97;;;16.20;;
66093;SDS011;52876;49.394;10.892;2023-03-01T12:08:45;20.43;;;14.33;;
66093;SDS011;52876;49.394;10.892;2023-03-01T12:11:18;21.00;;;14.67;;
66093;SDS011;52876;49.394;10.892;2023-03-01T12:13:57;19.40;;;14.43;;
66093;SDS011;52876;49.394;10.892;2023-03-01T12:16:29;17.57;;;12.83;;
66093;SDS011;52876;49.394;10.892;2023-03-01T12:19:07;18.60;;;14.03;;
66093;SDS011;52876;49.394;10.892;2023-03-01T12:21:48;16.57;;;13.90;;
66093;SDS011;52876;49.394;10.892;2023-03-01T12:24:21;15.97;;;13.13;;
66093;SDS011;52876;49.394;10.892;2023-03-01T12:26:55;17.60;;;13.80;;
66093;SDS011;52876;49.394;10.892;2023-03-01T12:29:24;16.43;;;13.27;;
66093;SDS011;52876;49.394;10.892;2023-03-01T12:32:00;17.80;;;14.60;;
66093;SDS011;52876;49.394;10.892;2023-03-01T12:34:37;15.57;;;13.80;;
66093;SDS011;52876;49.394;10.892;2023-03-01T12:37:16;15.90;;;14.03;;
66093;SDS011;52876;49.394;10.892;2023-03-01T12:39:47;16.33;;;14.00;;
66093;SDS011;52876;49.394;10.892;2023-03-01T12:42:18;20.00;;;14.67;;
66093;SDS011;52876;49.394;10.892;2023-03-01T12:45:02;18.00;;;14.23;;
66093;SDS011;52876;49.394;10.892;2023-03-01T12:47:37;15.63;;;13.97;;
66093;SDS011;52876;49.394;10.892;2023-03-01T12:50:10;22.60;;;13.63;;
66093;SDS011;52876;49.394;10.892;2023-03-01T12:52:40;17.13;;;13.60;;
66093;SDS011;52876;49.394;10.892;2023-03-01T12:55:08;18.23;;;14.20;;
66093;SDS011;52876;49.394;10.892;2023-03-01T12:57:46;16.27;;;13.00;;
66093;SDS011;52876;49.394;10.892;2023-03-01T13:00:17;18.63;;;13.87;;
66093;SDS011;52876;49.394;10.892;2023-03-01T13:02:52;15.33;;;13.53;;
66093;SDS011;52876;49.394;10.892;2023-03-01T13:05:29;14.73;;;13.13;;
66093;SDS011;52876;49.394;10.892;2023-03-01T13:07:58;16.70;;;13.27;;
66093;SDS011;52876;49.394;10.892;2023-03-01T13:10:29;15.80;;;13.27;;
66093;SDS011;52876;49.394;10.892;2023-03-01T13:13:02;16.00;;;12.50;;
66093;SDS011;52876;49.394;10.892;2023-03-01T13:15:29;31.60;;;18.50;;
66093;SDS011;52876;49.394;10.892;2023-03-01T13:17:56;20.30;;;15.20;;
66093;SDS011;52876;49.394;10.892;2023-03-01T13:20:25;20.70;;;16.27;;
66093;SDS011;52876;49.394;10.892;2023-03-01T13:23:01;23.43;;;16.40;;
66093;SDS011;52876;49.394;10.892;2023-03-01T13:25:28;18.90;;;15.37;;
66093;SDS011;52876;49.394;10.892;2023-03-01T13:27:54;16.13;;;13.50;;
66093;SDS011;52876;49.394;10.892;2023-03-01T13:30:43;14.77;;;13.17;;
66093;SDS011;52876;49.394;10.892;2023-03-01T13:33:33;14.93;;;12.37;;
66093;SDS011;52876;49.394;10.892;2023-03-01T13:36:00;17.47;;;12.70;;
66093;SDS011;52876;49.394;10.892;2023-03-01T13:38:36;14.40;;;11.33;;
66093;SDS011;52876;49.394;10.892;2023-03-01T13:41:04;18.73;;;14.00;;
66093;SDS011;52876;49.394;10.892;2023-03-01T13:43:31;14.63;;;12.87;;
66093;SDS011;52876;49.394;10.892;2023-03-01T13:46:00;14.17;;;12.10;;
66093;SDS011;52876;49.394;10.892;2023-03-01T13:48:28;14.97;;;12.47;;
66093;SDS011;52876;49.394;10.892;2023-03-01T13:50:55;15.33;;;12.47;;
66093;SDS011;52876;49.394;10.892;2023-03-01T13:53:24;13.80;;;11.33;;
66093;SDS011;52876;49.394;10.892;2023-03-01T13:55:54;16.90;;;12.40;;
66093;SDS011;52876;49.394;10.892;2023-03-01T13:58:22;14.07;;;12.60;;
66093;SDS011;52876;49.394;10.892;2023-03-01T14:00:57;14.20;;;12.27;;
66093;SDS011;52876;49.394;10.892;2023-03-01T14:03:25;18.50;;;13.53;;
66093;SDS011;52876;49.394;10.892;2023-03-01T14:05:59;15.43;;;12.57;;
66093;SDS011;52876;49.394;10.892;2023-03-01T14:08:27;16.43;;;12.73;;
66093;SDS011;52876;49.394;10.892;2023-03-01T14:10:58;14.77;;;13.17;;
66093;SDS011;52876;49.394;10.892;2023-03-01T14:13:30;14.83;;;12.10;;
66093;SDS011;52876;49.394;10.892;2023-03-01T14:16:04;14.07;;;12.40;;